KLM1821 EHAM-EDDF
Flight info
| Callsign | KLM1821 |
|---|---|
| Flight time | 0h 50m |
| Altitude | 33000 |
| Route | EDUPO Z739 MISGO DCT DIXAT DIXAT1A |
| Aircraft | E75L/M-SDE3GILORVW/S |
Departure
| Time | 2026-05-06 16:22 |
|---|---|
| Airport | Amsterdam Airport Schiphol (EHAM) |
Arrival
| Time | 2026-05-06 17:12 |
|---|---|
| Airport | Frankfurt Main Airport (EDDF) |
| Time | Latitude | Longitude | Altitude | Speed | Heading |
|---|---|---|---|---|---|
| 2026-05-06 16:12 | 52.30419 | 4.76128 | -3 ft | 0 kts | 58° |
| 2026-05-06 16:13 | 52.30415 | 4.76119 | -3 ft | 4 kts | 49° |
| 2026-05-06 16:13 | 52.30397 | 4.76091 | -3 ft | 2 kts | 58° |
| 2026-05-06 16:13 | 52.30396 | 4.76088 | -3 ft | 0 kts | 67° |
| 2026-05-06 16:16 | 52.30396 | 4.76096 | -3 ft | 1 kts | 92° |
| 2026-05-06 16:16 | 52.30392 | 4.76107 | -3 ft | 2 kts | 138° |
| 2026-05-06 16:16 | 52.30368 | 4.76112 | -3 ft | 7 kts | 174° |
| 2026-05-06 16:16 | 52.30302 | 4.76158 | -3 ft | 14 kts | 149° |
| 2026-05-06 16:17 | 52.30219 | 4.76240 | -3 ft | 13 kts | 163° |
| 2026-05-06 16:17 | 52.30157 | 4.76163 | -3 ft | 14 kts | 235° |
| 2026-05-06 16:17 | 52.30098 | 4.76008 | -3 ft | 17 kts | 237° |
| 2026-05-06 16:17 | 52.30034 | 4.75843 | -3 ft | 19 kts | 238° |
| 2026-05-06 16:18 | 52.29961 | 4.75655 | -3 ft | 20 kts | 238° |
| 2026-05-06 16:18 | 52.29885 | 4.75453 | -3 ft | 22 kts | 237° |
| 2026-05-06 16:18 | 52.29829 | 4.75241 | -3 ft | 17 kts | 289° |
| 2026-05-06 16:18 | 52.29898 | 4.75089 | -3 ft | 17 kts | 313° |
| 2026-05-06 16:19 | 52.29979 | 4.74937 | -3 ft | 18 kts | 311° |
| 2026-05-06 16:19 | 52.30066 | 4.74780 | -2 ft | 19 kts | 311° |
| 2026-05-06 16:19 | 52.30140 | 4.74643 | 8 ft | 13 kts | 311° |
| 2026-05-06 16:19 | 52.30205 | 4.74520 | 9 ft | 16 kts | 311° |
| 2026-05-06 16:20 | 52.30277 | 4.74382 | 8 ft | 16 kts | 313° |
| 2026-05-06 16:20 | 52.30369 | 4.74212 | -3 ft | 23 kts | 311° |
| 2026-05-06 16:20 | 52.30405 | 4.74002 | -3 ft | 17 kts | 267° |
| 2026-05-06 16:20 | 52.30412 | 4.73806 | -5 ft | 17 kts | 276° |
| 2026-05-06 16:21 | 52.30462 | 4.73757 | -5 ft | 8 kts | 5° |
| 2026-05-06 16:21 | 52.30613 | 4.73773 | -6 ft | 53 kts | 3° |
| 2026-05-06 16:21 | 52.31232 | 4.73833 | -5 ft | 124 kts | 4° |
| 2026-05-06 16:21 | 52.32223 | 4.73916 | 211 ft | 166 kts | 4° |
| 2026-05-06 16:22 | 52.33307 | 4.73990 | 898 ft | 182 kts | 7° |
| 2026-05-06 16:22 | 52.34558 | 4.74434 | 1878 ft | 189 kts | 20° |
| 2026-05-06 16:22 | 52.35737 | 4.75079 | 2888 ft | 193 kts | 22° |
| 2026-05-06 16:22 | 52.36994 | 4.75875 | 3954 ft | 193 kts | 26° |
| 2026-05-06 16:23 | 52.38138 | 4.77012 | 4952 ft | 197 kts | 44° |
| 2026-05-06 16:23 | 52.39096 | 4.78654 | 5826 ft | 203 kts | 46° |
| 2026-05-06 16:23 | 52.40123 | 4.80368 | 6672 ft | 214 kts | 45° |
| 2026-05-06 16:23 | 52.41217 | 4.82176 | 7424 ft | 238 kts | 44° |
| 2026-05-06 16:24 | 52.42218 | 4.84522 | 8032 ft | 267 kts | 69° |
| 2026-05-06 16:24 | 52.42444 | 4.87607 | 8924 ft | 284 kts | 92° |
| 2026-05-06 16:24 | 52.42358 | 4.89633 | 9757 ft | 287 kts | 92° |
| 2026-05-06 16:24 | 52.42339 | 4.90197 | 9931 ft | 288 kts | 91° |
| 2026-05-06 16:25 | 52.42314 | 4.93584 | 10707 ft | 308 kts | 88° |
| 2026-05-06 16:25 | 52.42184 | 4.97170 | 11521 ft | 323 kts | 103° |
| 2026-05-06 16:25 | 52.41178 | 5.00484 | 12564 ft | 331 kts | 130° |
| 2026-05-06 16:25 | 52.39436 | 5.02904 | 13597 ft | 336 kts | 147° |
| 2026-05-06 16:26 | 52.37472 | 5.05083 | 14674 ft | 338 kts | 147° |
| 2026-05-06 16:26 | 52.35484 | 5.07225 | 15558 ft | 345 kts | 149° |
| 2026-05-06 16:26 | 52.33479 | 5.09337 | 16546 ft | 348 kts | 144° |
| 2026-05-06 16:26 | 52.31574 | 5.11791 | 17401 ft | 354 kts | 147° |
| 2026-05-06 16:27 | 52.30532 | 5.12825 | 17722 ft | 357 kts | 154° |
| 2026-05-06 16:27 | 52.28928 | 5.14381 | 18192 ft | 363 kts | 143° |
| 2026-05-06 16:27 | 52.28156 | 5.15528 | 18402 ft | 366 kts | 134° |
| 2026-05-06 16:28 | 52.27604 | 5.16603 | 18613 ft | 367 kts | 127° |
| 2026-05-06 16:28 | 52.26339 | 5.20223 | 19299 ft | 369 kts | 117° |
| 2026-05-06 16:28 | 52.25157 | 5.23944 | 19930 ft | 371 kts | 121° |
| 2026-05-06 16:29 | 52.23783 | 5.27538 | 20545 ft | 373 kts | 125° |
| 2026-05-06 16:29 | 52.22284 | 5.31006 | 21104 ft | 378 kts | 129° |
| 2026-05-06 16:29 | 52.20689 | 5.34436 | 21726 ft | 379 kts | 129° |
| 2026-05-06 16:29 | 52.19096 | 5.37894 | 22213 ft | 385 kts | 129° |
| 2026-05-06 16:30 | 52.17543 | 5.41408 | 22783 ft | 387 kts | 127° |
| 2026-05-06 16:30 | 52.16555 | 5.43701 | 23199 ft | 386 kts | 127° |
| 2026-05-06 16:30 | 52.14515 | 5.48445 | 23768 ft | 391 kts | 127° |
| 2026-05-06 16:30 | 52.12965 | 5.52017 | 24188 ft | 393 kts | 127° |
| 2026-05-06 16:31 | 52.11396 | 5.55610 | 24622 ft | 394 kts | 127° |
| 2026-05-06 16:31 | 52.09782 | 5.59296 | 25051 ft | 396 kts | 127° |
| 2026-05-06 16:31 | 52.08180 | 5.62962 | 25484 ft | 398 kts | 127° |
| 2026-05-06 16:31 | 52.06615 | 5.66621 | 25916 ft | 400 kts | 126° |
| 2026-05-06 16:32 | 52.04976 | 5.70271 | 26301 ft | 401 kts | 130° |
| 2026-05-06 16:32 | 52.03142 | 5.73701 | 26724 ft | 402 kts | 134° |
| 2026-05-06 16:32 | 52.01254 | 5.77053 | 27042 ft | 404 kts | 134° |
| 2026-05-06 16:32 | 51.99342 | 5.80411 | 27417 ft | 406 kts | 134° |
| 2026-05-06 16:33 | 51.97442 | 5.83811 | 27758 ft | 408 kts | 133° |
| 2026-05-06 16:33 | 51.95568 | 5.87279 | 28088 ft | 410 kts | 132° |
| 2026-05-06 16:33 | 51.93694 | 5.90794 | 28352 ft | 413 kts | 132° |
| 2026-05-06 16:34 | 51.89921 | 5.97861 | 29015 ft | 415 kts | 132° |
| 2026-05-06 16:34 | 51.88017 | 6.01400 | 29342 ft | 416 kts | 132° |
| 2026-05-06 16:34 | 51.86118 | 6.04928 | 29655 ft | 417 kts | 133° |
| 2026-05-06 16:34 | 51.84208 | 6.08460 | 29939 ft | 418 kts | 132° |
| 2026-05-06 16:35 | 51.82280 | 6.12002 | 30178 ft | 419 kts | 133° |
| 2026-05-06 16:35 | 51.80345 | 6.15547 | 30416 ft | 421 kts | 133° |
| 2026-05-06 16:35 | 51.78434 | 6.19046 | 30654 ft | 422 kts | 133° |
| 2026-05-06 16:35 | 51.76487 | 6.22613 | 30858 ft | 423 kts | 133° |
| 2026-05-06 16:36 | 51.74537 | 6.26173 | 31067 ft | 425 kts | 133° |
| 2026-05-06 16:36 | 51.72578 | 6.29746 | 31268 ft | 426 kts | 133° |
| 2026-05-06 16:36 | 51.70616 | 6.33317 | 31552 ft | 424 kts | 133° |
| 2026-05-06 16:36 | 51.68655 | 6.36883 | 31734 ft | 425 kts | 133° |
| 2026-05-06 16:37 | 51.66689 | 6.40454 | 31885 ft | 427 kts | 133° |
| 2026-05-06 16:37 | 51.64715 | 6.44033 | 32032 ft | 428 kts | 133° |
| 2026-05-06 16:37 | 51.62732 | 6.47623 | 32203 ft | 429 kts | 133° |
| 2026-05-06 16:37 | 51.60748 | 6.51213 | 32371 ft | 429 kts | 133° |
| 2026-05-06 16:38 | 51.58763 | 6.54803 | 32572 ft | 429 kts | 133° |
| 2026-05-06 16:38 | 51.56773 | 6.58394 | 32771 ft | 429 kts | 133° |
| 2026-05-06 16:38 | 51.54803 | 6.61946 | 33068 ft | 426 kts | 134° |
| 2026-05-06 16:39 | 51.50790 | 6.69156 | 32953 ft | 437 kts | 134° |
| 2026-05-06 16:39 | 51.46710 | 6.76465 | 32955 ft | 444 kts | 134° |
| 2026-05-06 16:40 | 51.42551 | 6.83893 | 32949 ft | 450 kts | 134° |
| 2026-05-06 16:40 | 51.38416 | 6.91422 | 32955 ft | 455 kts | 131° |
| 2026-05-06 16:41 | 51.34527 | 6.99447 | 32985 ft | 460 kts | 129° |
| 2026-05-06 16:41 | 51.32558 | 7.03487 | 32757 ft | 465 kts | 130° |
| 2026-05-06 16:41 | 51.30476 | 7.07647 | 31423 ft | 488 kts | 130° |
| 2026-05-06 16:41 | 51.28385 | 7.11757 | 30494 ft | 472 kts | 131° |
| 2026-05-06 16:42 | 51.26093 | 7.15241 | 30190 ft | 440 kts | 144° |
| 2026-05-06 16:42 | 51.23497 | 7.17682 | 29475 ft | 427 kts | 154° |
| 2026-05-06 16:42 | 51.20881 | 7.19756 | 28862 ft | 414 kts | 155° |
| 2026-05-06 16:42 | 51.18332 | 7.21734 | 28378 ft | 401 kts | 155° |
| 2026-05-06 16:43 | 51.15857 | 7.23674 | 27811 ft | 392 kts | 155° |
| 2026-05-06 16:43 | 51.13414 | 7.25616 | 27320 ft | 396 kts | 154° |
| 2026-05-06 16:43 | 51.10941 | 7.27607 | 26772 ft | 399 kts | 154° |
| 2026-05-06 16:43 | 51.08468 | 7.29635 | 26243 ft | 399 kts | 154° |
| 2026-05-06 16:44 | 51.06018 | 7.31673 | 25740 ft | 395 kts | 154° |
| 2026-05-06 16:44 | 51.03582 | 7.33699 | 25167 ft | 394 kts | 154° |
| 2026-05-06 16:44 | 51.01170 | 7.35691 | 24691 ft | 390 kts | 154° |
| 2026-05-06 16:44 | 50.98769 | 7.37673 | 24140 ft | 387 kts | 154° |
| 2026-05-06 16:45 | 50.96405 | 7.39619 | 23651 ft | 384 kts | 155° |
| 2026-05-06 16:45 | 50.94016 | 7.41583 | 23100 ft | 381 kts | 155° |
| 2026-05-06 16:45 | 50.91680 | 7.43497 | 22629 ft | 378 kts | 155° |
| 2026-05-06 16:45 | 50.89340 | 7.45410 | 22145 ft | 377 kts | 155° |
| 2026-05-06 16:46 | 50.87043 | 7.47292 | 21606 ft | 377 kts | 155° |
| 2026-05-06 16:46 | 50.84725 | 7.49187 | 21146 ft | 372 kts | 155° |
| 2026-05-06 16:46 | 50.82422 | 7.51071 | 20607 ft | 369 kts | 155° |
| 2026-05-06 16:46 | 50.80920 | 7.52297 | 20303 ft | 366 kts | 156° |
| 2026-05-06 16:47 | 50.78667 | 7.54133 | 19801 ft | 363 kts | 156° |
| 2026-05-06 16:47 | 50.76430 | 7.55953 | 19337 ft | 359 kts | 156° |
| 2026-05-06 16:47 | 50.74209 | 7.57761 | 18839 ft | 358 kts | 156° |
| 2026-05-06 16:47 | 50.72000 | 7.59554 | 18372 ft | 355 kts | 156° |
| 2026-05-06 16:48 | 50.69806 | 7.61335 | 17899 ft | 352 kts | 156° |
| 2026-05-06 16:48 | 50.67641 | 7.63091 | 17468 ft | 349 kts | 156° |
| 2026-05-06 16:48 | 50.65488 | 7.64835 | 17046 ft | 347 kts | 156° |
| 2026-05-06 16:48 | 50.63332 | 7.66579 | 16588 ft | 348 kts | 156° |
| 2026-05-06 16:49 | 50.61193 | 7.68307 | 16207 ft | 345 kts | 156° |
| 2026-05-06 16:49 | 50.59046 | 7.70040 | 15742 ft | 347 kts | 156° |
| 2026-05-06 16:49 | 50.56905 | 7.71767 | 15360 ft | 344 kts | 156° |
| 2026-05-06 16:49 | 50.54776 | 7.73481 | 14936 ft | 343 kts | 155° |
| 2026-05-06 16:50 | 50.52666 | 7.75180 | 14531 ft | 338 kts | 155° |
| 2026-05-06 16:50 | 50.50624 | 7.76831 | 14142 ft | 332 kts | 155° |
| 2026-05-06 16:50 | 50.48587 | 7.78477 | 13753 ft | 326 kts | 155° |
| 2026-05-06 16:50 | 50.46601 | 7.80073 | 13366 ft | 320 kts | 155° |
| 2026-05-06 16:51 | 50.44656 | 7.81634 | 13057 ft | 312 kts | 155° |
| 2026-05-06 16:51 | 50.42751 | 7.83181 | 12720 ft | 306 kts | 153° |
| 2026-05-06 16:51 | 50.40999 | 7.85043 | 12433 ft | 301 kts | 143° |
| 2026-05-06 16:51 | 50.39444 | 7.87209 | 12107 ft | 299 kts | 140° |
| 2026-05-06 16:52 | 50.38021 | 7.89563 | 11806 ft | 299 kts | 127° |
| 2026-05-06 16:52 | 50.37153 | 7.92539 | 11582 ft | 304 kts | 106° |
| 2026-05-06 16:52 | 50.36716 | 7.95806 | 11319 ft | 309 kts | 101° |
| 2026-05-06 16:52 | 50.36389 | 7.99080 | 11061 ft | 307 kts | 100° |
| 2026-05-06 16:53 | 50.36064 | 8.02364 | 10830 ft | 304 kts | 101° |
| 2026-05-06 16:53 | 50.35703 | 8.05628 | 10581 ft | 303 kts | 102° |
| 2026-05-06 16:53 | 50.35314 | 8.08875 | 10336 ft | 303 kts | 102° |
| 2026-05-06 16:53 | 50.34915 | 8.12103 | 10084 ft | 301 kts | 103° |
| 2026-05-06 16:54 | 50.34518 | 8.15310 | 9839 ft | 299 kts | 103° |
| 2026-05-06 16:54 | 50.34131 | 8.18460 | 9908 ft | 295 kts | 103° |
| 2026-05-06 16:54 | 50.33726 | 8.21649 | 9933 ft | 301 kts | 103° |
| 2026-05-06 16:54 | 50.33352 | 8.24568 | 9874 ft | 301 kts | 103° |
| 2026-05-06 16:55 | 50.32948 | 8.27769 | 9881 ft | 299 kts | 103° |
| 2026-05-06 16:55 | 50.32546 | 8.30977 | 9880 ft | 300 kts | 103° |
| 2026-05-06 16:55 | 50.32145 | 8.34154 | 9895 ft | 300 kts | 103° |
| 2026-05-06 16:55 | 50.31737 | 8.37358 | 9895 ft | 300 kts | 103° |
| 2026-05-06 16:56 | 50.31330 | 8.40552 | 9896 ft | 300 kts | 103° |
| 2026-05-06 16:56 | 50.30920 | 8.43749 | 9908 ft | 301 kts | 103° |
| 2026-05-06 16:56 | 50.30507 | 8.46969 | 9886 ft | 301 kts | 103° |
| 2026-05-06 16:56 | 50.30133 | 8.49921 | 9694 ft | 303 kts | 103° |
| 2026-05-06 16:57 | 50.29723 | 8.53217 | 9443 ft | 298 kts | 103° |
| 2026-05-06 16:57 | 50.29331 | 8.56363 | 9172 ft | 297 kts | 103° |
| 2026-05-06 16:57 | 50.28935 | 8.59528 | 8910 ft | 296 kts | 103° |
| 2026-05-06 16:57 | 50.28546 | 8.62690 | 8648 ft | 295 kts | 103° |
| 2026-05-06 16:58 | 50.28145 | 8.65816 | 8384 ft | 293 kts | 104° |
| 2026-05-06 16:58 | 50.27719 | 8.68921 | 8126 ft | 292 kts | 104° |
| 2026-05-06 16:58 | 50.27330 | 8.72042 | 7876 ft | 292 kts | 102° |
| 2026-05-06 16:58 | 50.26961 | 8.75155 | 7618 ft | 291 kts | 103° |
| 2026-05-06 16:59 | 50.26555 | 8.78233 | 7364 ft | 288 kts | 104° |
| 2026-05-06 16:59 | 50.26070 | 8.81224 | 7116 ft | 279 kts | 111° |
| 2026-05-06 16:59 | 50.25398 | 8.84038 | 6927 ft | 270 kts | 113° |
| 2026-05-06 16:59 | 50.24761 | 8.86661 | 6889 ft | 256 kts | 113° |
| 2026-05-06 17:00 | 50.24152 | 8.89204 | 6960 ft | 244 kts | 113° |
| 2026-05-06 17:00 | 50.23554 | 8.91711 | 7026 ft | 256 kts | 113° |
| 2026-05-06 17:00 | 50.22923 | 8.94354 | 6673 ft | 257 kts | 113° |
| 2026-05-06 17:00 | 50.22321 | 8.96894 | 6774 ft | 240 kts | 113° |
| 2026-05-06 17:01 | 50.21730 | 8.99368 | 7215 ft | 246 kts | 114° |
| 2026-05-06 17:01 | 50.21121 | 9.01894 | 7592 ft | 248 kts | 114° |
| 2026-05-06 17:01 | 50.20272 | 9.04136 | 7293 ft | 236 kts | 141° |
| 2026-05-06 17:01 | 50.18888 | 9.05372 | 6858 ft | 225 kts | 163° |
| 2026-05-06 17:02 | 50.17413 | 9.06210 | 6478 ft | 229 kts | 163° |
| 2026-05-06 17:02 | 50.15844 | 9.06977 | 5833 ft | 240 kts | 175° |
| 2026-05-06 17:02 | 50.14263 | 9.06662 | 5178 ft | 233 kts | 211° |
| 2026-05-06 17:02 | 50.13238 | 9.04785 | 4538 ft | 230 kts | 255° |
| 2026-05-06 17:03 | 50.13448 | 9.02443 | 4013 ft | 233 kts | 303° |
| 2026-05-06 17:03 | 50.14757 | 9.01255 | 4040 ft | 219 kts | 356° |
| 2026-05-06 17:03 | 50.16129 | 9.02138 | 4073 ft | 225 kts | 52° |
| 2026-05-06 17:03 | 50.16532 | 9.04425 | 4188 ft | 225 kts | 108° |
| 2026-05-06 17:04 | 50.15651 | 9.06250 | 4312 ft | 213 kts | 162° |
| 2026-05-06 17:04 | 50.14270 | 9.06163 | 4416 ft | 203 kts | 217° |
| 2026-05-06 17:04 | 50.13607 | 9.04317 | 4561 ft | 205 kts | 270° |
| 2026-05-06 17:04 | 50.13908 | 9.02144 | 4762 ft | 208 kts | 289° |
| 2026-05-06 17:05 | 50.14550 | 9.00095 | 4815 ft | 210 kts | 282° |
| 2026-05-06 17:05 | 50.14423 | 8.97890 | 4329 ft | 210 kts | 238° |
| 2026-05-06 17:05 | 50.13361 | 8.96306 | 3797 ft | 207 kts | 220° |
| 2026-05-06 17:05 | 50.12528 | 8.94725 | 4047 ft | 180 kts | 246° |
| 2026-05-06 17:06 | 50.12112 | 8.92835 | 4437 ft | 188 kts | 251° |
| 2026-05-06 17:06 | 50.11642 | 8.90902 | 4607 ft | 193 kts | 247° |
| 2026-05-06 17:06 | 50.11149 | 8.88967 | 4299 ft | 197 kts | 249° |
| 2026-05-06 17:06 | 50.10679 | 8.86897 | 3589 ft | 203 kts | 251° |
| 2026-05-06 17:07 | 50.10226 | 8.84959 | 3637 ft | 186 kts | 250° |
| 2026-05-06 17:07 | 50.09791 | 8.83139 | 4317 ft | 178 kts | 249° |
| 2026-05-06 17:07 | 50.09346 | 8.81240 | 4333 ft | 195 kts | 249° |
| 2026-05-06 17:07 | 50.08860 | 8.79172 | 3493 ft | 212 kts | 250° |
| 2026-05-06 17:08 | 50.08359 | 8.77048 | 2978 ft | 202 kts | 250° |
| 2026-05-06 17:08 | 50.07894 | 8.75084 | 2644 ft | 185 kts | 251° |
| 2026-05-06 17:08 | 50.07473 | 8.73304 | 2391 ft | 163 kts | 252° |
| 2026-05-06 17:08 | 50.07105 | 8.71744 | 2158 ft | 147 kts | 253° |
| 2026-05-06 17:09 | 50.06769 | 8.70322 | 1947 ft | 138 kts | 253° |
| 2026-05-06 17:09 | 50.06446 | 8.68957 | 1823 ft | 133 kts | 253° |
| 2026-05-06 17:09 | 50.06128 | 8.67612 | 1638 ft | 133 kts | 252° |
| 2026-05-06 17:09 | 50.05803 | 8.66243 | 1467 ft | 134 kts | 253° |
| 2026-05-06 17:10 | 50.05484 | 8.64894 | 1254 ft | 132 kts | 253° |
| 2026-05-06 17:10 | 50.05163 | 8.63542 | 1082 ft | 134 kts | 253° |
| 2026-05-06 17:10 | 50.04838 | 8.62181 | 860 ft | 134 kts | 255° |
| 2026-05-06 17:10 | 50.04557 | 8.60951 | 780 ft | 135 kts | 255° |
| 2026-05-06 17:11 | 50.04237 | 8.59580 | 505 ft | 135 kts | 250° |
| 2026-05-06 17:11 | 50.03911 | 8.58255 | 365 ft | 127 kts | 250° |
| 2026-05-06 17:11 | 50.03643 | 8.57109 | 357 ft | 92 kts | 249° |
| 2026-05-06 17:11 | 50.03462 | 8.56374 | 352 ft | 52 kts | 250° |
| 2026-05-06 17:12 | 50.03442 | 8.56004 | 344 ft | 23 kts | 279° |
| 2026-05-06 17:12 | 50.03457 | 8.55873 | 343 ft | 0 kts | 278° |
| 2026-05-06 17:12 | 50.03457 | 8.55872 | 343 ft | 1 kts | 278° |
| 2026-05-06 17:13 | 50.03459 | 8.55856 | 343 ft | 2 kts | 278° |
| 2026-05-06 17:13 | 50.03463 | 8.55809 | 350 ft | 7 kts | 278° |
| 2026-05-06 17:13 | 50.03471 | 8.55749 | 342 ft | 0 kts | 289° |
| 2026-05-06 17:13 | 50.03472 | 8.55744 | 342 ft | 2 kts | 289° |
| 2026-05-06 17:14 | 50.03483 | 8.55715 | 346 ft | 5 kts | 312° |
| 2026-05-06 17:14 | 50.03516 | 8.55694 | 343 ft | 5 kts | 2° |
| 2026-05-06 17:14 | 50.03552 | 8.55722 | 352 ft | 7 kts | 42° |
| 2026-05-06 17:14 | 50.03581 | 8.55791 | 346 ft | 8 kts | 66° |
| 2026-05-06 17:15 | 50.03596 | 8.55860 | 352 ft | 6 kts | 76° |
| 2026-05-06 17:15 | 50.03606 | 8.55925 | 347 ft | 6 kts | 74° |
| 2026-05-06 17:15 | 50.03619 | 8.55994 | 351 ft | 7 kts | 72° |
| 2026-05-06 17:15 | 50.03637 | 8.56080 | 353 ft | 8 kts | 71° |
| 2026-05-06 17:16 | 50.03659 | 8.56170 | 352 ft | 10 kts | 69° |
| 2026-05-06 17:16 | 50.03688 | 8.56287 | 354 ft | 13 kts | 69° |
| 2026-05-06 17:16 | 50.03723 | 8.56426 | 354 ft | 15 kts | 69° |
| 2026-05-06 17:16 | 50.03758 | 8.56580 | 353 ft | 16 kts | 70° |
| 2026-05-06 17:17 | 50.03798 | 8.56756 | 353 ft | 18 kts | 69° |
| 2026-05-06 17:17 | 50.03845 | 8.56947 | 353 ft | 20 kts | 70° |
| 2026-05-06 17:17 | 50.03893 | 8.57148 | 356 ft | 20 kts | 70° |
| 2026-05-06 17:17 | 50.03943 | 8.57357 | 363 ft | 21 kts | 69° |
| 2026-05-06 17:18 | 50.03994 | 8.57571 | 363 ft | 21 kts | 71° |
| 2026-05-06 17:18 | 50.04045 | 8.57787 | 365 ft | 22 kts | 69° |
| 2026-05-06 17:18 | 50.04100 | 8.58012 | 367 ft | 21 kts | 70° |
| 2026-05-06 17:18 | 50.04178 | 8.58162 | 364 ft | 18 kts | 23° |
| 2026-05-06 17:19 | 50.04215 | 8.58191 | 364 ft | 0 kts | 25° |
| 2026-05-06 17:19 | 50.04220 | 8.58195 | 364 ft | 2 kts | 25° |
| 2026-05-06 17:19 | 50.04258 | 8.58206 | 364 ft | 9 kts | 1° |
| 2026-05-06 17:20 | 50.04351 | 8.58167 | 367 ft | 16 kts | 341° |
| 2026-05-06 17:20 | 50.04455 | 8.58107 | 363 ft | 14 kts | 339° |
| 2026-05-06 17:20 | 50.04493 | 8.58084 | 365 ft | 0 kts | 339° |
| 2026-05-06 17:22 | 50.04501 | 8.58079 | 367 ft | 2 kts | 339° |
| 2026-05-06 17:22 | 50.04529 | 8.58063 | 365 ft | 7 kts | 339° |
| 2026-05-06 17:22 | 50.04599 | 8.58022 | 358 ft | 14 kts | 340° |
| 2026-05-06 17:23 | 50.04697 | 8.57960 | 357 ft | 14 kts | 335° |
| 2026-05-06 17:23 | 50.04759 | 8.57929 | 355 ft | 7 kts | 352° |
| 2026-05-06 17:23 | 50.04802 | 8.57960 | 362 ft | 6 kts | 46° |
| 2026-05-06 17:23 | 50.04819 | 8.58018 | 362 ft | 7 kts | 73° |
| 2026-05-06 17:24 | 50.04842 | 8.58119 | 358 ft | 12 kts | 70° |
| 2026-05-06 17:24 | 50.04876 | 8.58264 | 363 ft | 17 kts | 69° |
| 2026-05-06 17:24 | 50.04919 | 8.58440 | 361 ft | 18 kts | 68° |
| 2026-05-06 17:24 | 50.04949 | 8.58564 | 360 ft | 3 kts | 53° |
| 2026-05-06 17:25 | 50.04950 | 8.58565 | 360 ft | 0 kts | 46° |
| 2026-05-06 17:25 | 50.04960 | 8.58573 | 358 ft | 2 kts | 11° |
| 2026-05-06 17:25 | 50.04993 | 8.58563 | 357 ft | 6 kts | 340° |
| 2026-05-06 17:25 | 50.05014 | 8.58551 | 360 ft | 1 kts | 339° |
| 2026-05-06 17:26 | 50.05017 | 8.58549 | 360 ft | 0 kts | 339° |
| 2026-05-06 17:28 | 50.05027 | 8.58531 | 359 ft | 0 kts | 339° |